Terminal Aerodrome Forecast
Issued by NWS

Current Version | Previous Version | Text Only | Print | Product List | Glossary On
Versions: 1 2 3 4 5 6 7 8 9 10 11 12 13 14 15 16 17
000
FTUS43 KGRB 310520
TAFCWA
TAF
KCWA 310520Z 3106/0106 VRB03KT P6SM FEW050 SCT100
     FM310900 00000KT 4SM BR SKC
     FM311200 12006KT P6SM SCT050
     FM010100 VRB02KT P6SM SKC
      AMD LTD TO CLD VIS AND WIND TIL 311100=

USA.gov is the U.S. government's official web portal to all federal, state and local government web resources and services.